createdAt,value
2022-12-15T00:01:35.401Z,98011.21
2022-12-15T00:03:38.174Z,98014.61
2022-12-15T00:05:40.921Z,98019.29
2022-12-15T00:07:43.626Z,98024.69
2022-12-15T00:09:46.321Z,98022.16
2022-12-15T00:11:49.173Z,98021.69
2022-12-15T00:13:51.833Z,98035.49
2022-12-15T00:15:54.558Z,98032.69
2022-12-15T00:17:57.168Z,98030.88
2022-12-15T00:19:59.808Z,98023.59
2022-12-15T00:22:03.781Z,98021.89
2022-12-15T00:24:07.090Z,98029.66
2022-12-15T00:26:09.870Z,98026.69
2022-12-15T00:28:12.497Z,98033.83
2022-12-15T00:30:15.248Z,98037.36
2022-12-15T00:32:20.650Z,98030.98
2022-12-15T00:34:23.279Z,98040.35
2022-12-15T00:36:25.810Z,98039.73
2022-12-15T00:38:28.528Z,98037.15
2022-12-15T00:40:31.125Z,98052.33
2022-12-15T00:42:33.835Z,98052.23
2022-12-15T00:44:36.511Z,98063.81
2022-12-15T00:46:39.176Z,98063.70
2022-12-15T00:48:42.445Z,98066.75
2022-12-15T00:50:45.144Z,98075.42
2022-12-15T00:52:47.731Z,98087.36
2022-12-15T00:54:50.371Z,98090.93
2022-12-15T00:56:53.050Z,98095.67
2022-12-15T00:58:55.681Z,98100.52
2022-12-15T01:01:04.567Z,98107.86
2022-12-15T01:03:12.109Z,98106.12
2022-12-15T01:05:14.951Z,98103.14
2022-12-15T01:07:19.654Z,98106.73
2022-12-15T01:09:22.931Z,98109.86
2022-12-15T01:11:25.628Z,98113.66
2022-12-15T01:13:28.574Z,98114.36
2022-12-15T01:15:31.519Z,98114.33
2022-12-15T01:17:34.118Z,98117.55
2022-12-15T01:19:36.667Z,98126.20
2022-12-15T01:21:39.268Z,98118.36
2022-12-15T01:23:42.000Z,98116.27
2022-12-15T01:25:44.592Z,98117.45
2022-12-15T01:27:52.336Z,98112.17
2022-12-15T01:29:55.017Z,98108.12
2022-12-15T01:31:57.701Z,98104.20
2022-12-15T01:34:00.324Z,98116.11
2022-12-15T01:36:03.120Z,98121.54
2022-12-15T01:38:06.200Z,98117.52
2022-12-15T01:40:15.228Z,98123.03
2022-12-15T01:42:17.909Z,98128.84
2022-12-15T01:44:22.264Z,98126.04
2022-12-15T01:46:24.933Z,98122.73
2022-12-15T01:48:41.606Z,98126.89
2022-12-15T01:50:47.036Z,98129.29
2022-12-15T01:52:51.618Z,98138.45
2022-12-15T01:54:56.915Z,98146.26
2022-12-15T01:57:03.871Z,98149.71
2022-12-15T01:59:10.460Z,98162.76
2022-12-15T02:01:13.141Z,98160.36
2022-12-15T02:03:16.382Z,98149.98
2022-12-15T02:05:20.942Z,98158.61
2022-12-15T02:07:24.191Z,98165.34
2022-12-15T02:09:27.663Z,98176.33
2022-12-15T02:11:50.078Z,98174.23
2022-12-15T02:13:59.290Z,98171.27
2022-12-15T02:16:11.609Z,98168.14
2022-12-15T02:18:20.522Z,98167.80
2022-12-15T02:20:43.776Z,98170.96
2022-12-15T02:23:10.968Z,98161.60
2022-12-15T02:25:38.884Z,98156.56
2022-12-15T02:27:56.319Z,98156.66
2022-12-15T02:30:14.921Z,98161.48
2022-12-15T02:32:23.551Z,98162.77
2022-12-15T02:34:34.079Z,98159.25
2022-12-15T02:36:42.224Z,98163.65
2022-12-15T02:38:44.804Z,98173.99
2022-12-15T02:40:47.381Z,98168.25
2022-12-15T02:42:53.978Z,98173.04
2022-12-15T02:45:00.892Z,98169.46
2022-12-15T02:47:30.385Z,98178.95
2022-12-15T02:49:45.575Z,98181.46
2022-12-15T02:52:06.012Z,98177.27
2022-12-15T02:54:36.178Z,98170.58
2022-12-15T02:56:44.055Z,98168.02
2022-12-15T02:58:56.482Z,98181.23
2022-12-15T03:01:03.430Z,98188.34
2022-12-15T03:03:06.908Z,98191.49
2022-12-15T03:05:11.446Z,98199.61
2022-12-15T03:07:14.340Z,98207.27
2022-12-15T03:09:16.978Z,98220.05
2022-12-15T03:11:19.606Z,98219.98
2022-12-15T03:13:22.371Z,98221.98
2022-12-15T03:15:27.978Z,98216.11
2022-12-15T03:17:32.964Z,98213.20
2022-12-15T03:19:35.581Z,98207.06
2022-12-15T03:21:38.124Z,98210.48
2022-12-15T03:23:40.851Z,98206.83
2022-12-15T03:25:45.365Z,98221.23
2022-12-15T03:27:48.014Z,98231.57
2022-12-15T03:29:50.653Z,98230.58
2022-12-15T03:31:53.289Z,98233.92
2022-12-15T03:33:55.884Z,98237.91
2022-12-15T03:35:58.499Z,98237.66
2022-12-15T03:38:01.134Z,98237.19
2022-12-15T03:40:04.592Z,98230.57
2022-12-15T03:42:07.248Z,98236.91
2022-12-15T03:44:09.847Z,98242.77
2022-12-15T03:46:12.678Z,98245.70
2022-12-15T03:48:15.352Z,98243.06
2022-12-15T03:50:21.162Z,98245.12
2022-12-15T03:52:23.828Z,98244.77
2022-12-15T03:54:26.455Z,98256.28
2022-12-15T03:56:29.100Z,98264.22
2022-12-15T03:58:31.710Z,98269.60
2022-12-15T04:00:34.298Z,98274.64
2022-12-15T04:02:36.939Z,98278.10
2022-12-15T04:04:39.650Z,98282.66
2022-12-15T04:06:42.247Z,98289.40
2022-12-15T04:08:44.837Z,98300.37
2022-12-15T04:10:52.261Z,98298.95
2022-12-15T04:12:58.066Z,98290.79
2022-12-15T04:15:00.847Z,98294.88
2022-12-15T04:17:03.561Z,98295.49
2022-12-15T04:19:06.177Z,98292.39
2022-12-15T04:21:08.852Z,98287.30
2022-12-15T04:23:11.549Z,98281.66
2022-12-15T04:25:16.108Z,98276.52
2022-12-15T04:27:18.854Z,98276.33
2022-12-15T04:29:21.426Z,98278.48
2022-12-15T04:31:27.468Z,98286.89
2022-12-15T04:33:31.197Z,98297.23
2022-12-15T04:35:37.146Z,98301.14
2022-12-15T04:37:39.784Z,98306.68
2022-12-15T04:39:45.423Z,98299.52
2022-12-15T04:41:48.268Z,98298.19
2022-12-15T04:43:50.873Z,98296.38
2022-12-15T04:45:53.561Z,98306.40
2022-12-15T04:47:56.365Z,98311.78
2022-12-15T04:49:58.918Z,98314.82
2022-12-15T04:52:01.516Z,98328.98
2022-12-15T04:54:04.277Z,98327.56
2022-12-15T04:56:16.532Z,98322.33
2022-12-15T04:58:21.209Z,98320.54
2022-12-15T05:00:23.879Z,98322.41
2022-12-15T05:02:26.598Z,98322.67
2022-12-15T05:04:29.364Z,98330.42
2022-12-15T05:06:32.221Z,98335.65
2022-12-15T05:08:34.949Z,98340.15
2022-12-15T05:10:37.530Z,98334.91
2022-12-15T05:12:40.197Z,98337.77
2022-12-15T05:14:42.842Z,98349.29
2022-12-15T05:16:45.472Z,98354.63
2022-12-15T05:18:48.134Z,98351.46
2022-12-15T05:20:50.790Z,98349.65
2022-12-15T05:22:54.920Z,98350.84
2022-12-15T05:24:57.654Z,98353.73
2022-12-15T05:27:00.280Z,98351.16
2022-12-15T05:29:03.406Z,98353.56
2022-12-15T05:31:07.132Z,98361.60
2022-12-15T05:33:09.772Z,98367.14
2022-12-15T05:35:12.473Z,98358.06
2022-12-15T05:37:15.032Z,98362.18
2022-12-15T05:39:17.631Z,98364.89
2022-12-15T05:41:21.229Z,98362.39
2022-12-15T05:43:26.831Z,98369.44
2022-12-15T05:45:29.510Z,98370.68
2022-12-15T05:47:32.141Z,98375.42
2022-12-15T05:49:36.381Z,98368.56
2022-12-15T05:51:40.146Z,98375.23
2022-12-15T05:53:42.843Z,98381.61
2022-12-15T05:55:47.040Z,98386.96
2022-12-15T05:57:52.290Z,98391.38
2022-12-15T05:59:54.885Z,98395.05
2022-12-15T06:01:57.556Z,98395.79
2022-12-15T06:04:00.419Z,98395.14
2022-12-15T06:06:03.852Z,98398.80
2022-12-15T06:08:06.412Z,98401.42
2022-12-15T06:10:09.781Z,98402.17
2022-12-15T06:12:12.640Z,98404.30
2022-12-15T06:14:15.573Z,98404.58
2022-12-15T06:16:19.641Z,98399.35
2022-12-15T06:18:22.749Z,98391.36
2022-12-15T06:20:25.417Z,98392.29
2022-12-15T06:22:29.080Z,98393.51
2022-12-15T06:24:31.700Z,98387.92
2022-12-15T06:26:35.932Z,98392.44
2022-12-15T06:28:39.200Z,98405.55
2022-12-15T06:30:41.773Z,98402.70
2022-12-15T06:32:44.393Z,98412.27
2022-12-15T06:34:47.740Z,98415.79
2022-12-15T06:36:50.309Z,98421.91
2022-12-15T06:38:53.198Z,98423.59
2022-12-15T06:40:56.286Z,98429.71
2022-12-15T06:42:58.898Z,98430.80
2022-12-15T06:45:01.501Z,98438.63
2022-12-15T06:47:04.369Z,98443.55
2022-12-15T06:49:08.236Z,98452.52
2022-12-15T06:51:16.768Z,98458.59
2022-12-15T06:53:22.220Z,98462.89
2022-12-15T06:55:24.893Z,98460.84
2022-12-15T06:57:27.463Z,98463.38
2022-12-15T06:59:30.276Z,98471.79
2022-12-15T07:01:33.528Z,98492.59
2022-12-15T07:03:37.027Z,98489.46
2022-12-15T07:05:40.459Z,98488.77
2022-12-15T07:07:43.153Z,98480.36
2022-12-15T07:09:45.950Z,98476.09
2022-12-15T07:11:48.599Z,98468.68
2022-12-15T07:13:52.071Z,98462.86
2022-12-15T07:15:59.966Z,98466.91
2022-12-15T07:18:03.180Z,98474.09
2022-12-15T07:20:07.626Z,98470.98
2022-12-15T07:22:10.428Z,98480.22
2022-12-15T07:24:13.447Z,98485.23
2022-12-15T07:26:16.132Z,98490.04
2022-12-15T07:28:24.131Z,98492.71
2022-12-15T07:30:31.322Z,98485.27
2022-12-15T07:32:36.889Z,98483.05
2022-12-15T07:34:39.552Z,98484.67
2022-12-15T07:36:44.603Z,98488.03
2022-12-15T07:38:51.728Z,98497.77
2022-12-15T07:40:54.968Z,98503.41
2022-12-15T07:42:57.580Z,98504.95
2022-12-15T07:45:00.223Z,98517.52
2022-12-15T07:47:02.984Z,98525.40
2022-12-15T07:49:05.759Z,98533.73
2022-12-15T07:51:15.157Z,98549.69
2022-12-15T07:53:21.696Z,98532.15
2022-12-15T07:55:50.113Z,98536.63
2022-12-15T07:57:48.042Z,98546.21
2022-12-15T07:59:51.190Z,98551.73
2022-12-15T08:01:54.063Z,98552.09
2022-12-15T08:03:56.911Z,98555.41
2022-12-15T08:06:04.306Z,98566.66
2022-12-15T08:08:10.908Z,98569.52
2022-12-15T08:10:17.944Z,98565.41
2022-12-15T08:12:20.582Z,98557.59
2022-12-15T08:14:23.844Z,98561.70
2022-12-15T08:16:27.177Z,98566.79
2022-12-15T08:18:29.918Z,98577.70
2022-12-15T08:20:32.686Z,98580.02
2022-12-15T08:22:35.465Z,98578.86
2022-12-15T08:24:38.085Z,98575.14
2022-12-15T08:26:41.838Z,98573.66
2022-12-15T08:28:45.226Z,98582.99
2022-12-15T08:30:47.924Z,98580.60
2022-12-15T08:32:52.173Z,98581.11
2022-12-15T08:34:54.954Z,98577.25
2022-12-15T08:36:57.606Z,98577.49
2022-12-15T08:39:01.207Z,98580.05
2022-12-15T08:41:08.532Z,98580.06
2022-12-15T08:43:11.199Z,98590.55
2022-12-15T08:45:13.961Z,98595.48
2022-12-15T08:47:16.667Z,98600.42
2022-12-15T08:49:22.159Z,98603.30
2022-12-15T08:51:28.009Z,98599.88
2022-12-15T08:53:32.066Z,98599.32
2022-12-15T08:55:35.090Z,98597.23
2022-12-15T08:57:38.112Z,98603.73
2022-12-15T08:59:40.736Z,98602.87
2022-12-15T09:01:43.584Z,98606.20
2022-12-15T09:03:46.536Z,98608.75
2022-12-15T09:05:49.167Z,98622.60
2022-12-15T09:07:55.157Z,98625.81
2022-12-15T09:09:57.805Z,98629.65
2022-12-15T09:12:00.975Z,98631.89
2022-12-15T09:14:03.609Z,98629.09
2022-12-15T09:16:12.021Z,98625.95
2022-12-15T09:18:14.683Z,98622.77
2022-12-15T09:20:18.085Z,98621.70
2022-12-15T09:22:20.883Z,98626.09
2022-12-15T09:24:33.981Z,98628.83
2022-12-15T09:26:37.733Z,98625.60
2022-12-15T09:28:41.687Z,98614.84
2022-12-15T09:30:44.391Z,98607.24
2022-12-15T09:32:47.073Z,98605.34
2022-12-15T09:34:50.903Z,98610.86
2022-12-15T09:36:53.764Z,98616.85
2022-12-15T09:38:56.483Z,98611.32
2022-12-15T09:41:08.310Z,98612.30
2022-12-15T09:43:46.289Z,98617.15
2022-12-15T09:45:44.033Z,98624.24
2022-12-15T09:47:52.979Z,98627.51
2022-12-15T09:49:56.910Z,98622.86
2022-12-15T09:52:10.435Z,98619.99
2022-12-15T09:54:13.977Z,98616.32
2022-12-15T09:56:22.861Z,98611.96
2022-12-15T09:58:39.969Z,98618.73
2022-12-15T10:00:52.218Z,98623.09
2022-12-15T10:03:19.941Z,98624.50
2022-12-15T10:06:07.132Z,98625.80
2022-12-15T10:08:00.720Z,98620.52
2022-12-15T10:10:10.794Z,98619.64
2022-12-15T10:12:18.493Z,98618.58
2022-12-15T10:14:29.840Z,98618.85
2022-12-15T10:16:42.392Z,98619.56
2022-12-15T10:19:01.134Z,98624.61
2022-12-15T10:21:04.866Z,98629.71
2022-12-15T10:23:13.393Z,98623.62
2022-12-15T10:27:58.237Z,98604.95
2022-12-15T10:30:03.693Z,98604.94
2022-12-15T10:32:17.436Z,98611.31
2022-12-15T10:34:26.024Z,98607.79
2022-12-15T10:36:28.626Z,98604.14
2022-12-15T10:38:35.014Z,98608.38
2022-12-15T10:40:50.406Z,98612.73
2022-12-15T10:42:53.543Z,98624.14
2022-12-15T10:44:58.234Z,98616.63
2022-12-15T10:47:10.719Z,98610.80
2022-12-15T10:49:23.993Z,98615.09
2022-12-15T10:51:29.511Z,98619.84
2022-12-15T10:53:41.649Z,98619.92
2022-12-15T10:58:16.789Z,98611.66
2022-12-15T11:00:28.431Z,98609.89
2022-12-15T11:02:33.598Z,98608.05
2022-12-15T11:04:36.549Z,98609.95
2022-12-15T11:06:42.050Z,98609.02
2022-12-15T11:08:45.949Z,98611.48
2022-12-15T11:10:53.683Z,98623.41
2022-12-15T11:13:14.013Z,98626.48
2022-12-15T11:15:38.263Z,98615.45
2022-12-15T11:17:42.509Z,98617.02
2022-12-15T11:19:56.756Z,98616.09
2022-12-15T11:22:11.146Z,98613.38
2022-12-15T11:24:17.892Z,98610.58
2022-12-15T11:26:41.682Z,98610.74
2022-12-15T11:28:49.993Z,98605.53
2022-12-15T11:31:00.415Z,98600.61
2022-12-15T11:33:03.386Z,98601.83
2022-12-15T11:35:13.230Z,98604.38
2022-12-15T11:37:40.929Z,98602.02
2022-12-15T11:40:11.411Z,98599.67
2022-12-15T11:42:21.980Z,98608.02
2022-12-15T11:44:29.624Z,98611.71
2022-12-15T11:46:39.157Z,98610.04
2022-12-15T11:48:52.077Z,98601.50
2022-12-15T11:50:59.414Z,98594.34
2022-12-15T11:53:14.018Z,98595.14
2022-12-15T11:55:29.607Z,98593.79
2022-12-15T11:57:56.279Z,98590.09
2022-12-15T12:00:07.557Z,98592.34
2022-12-15T12:02:37.539Z,98593.44
2022-12-15T12:04:50.803Z,98593.59
2022-12-15T12:07:06.978Z,98592.17
2022-12-15T12:09:28.616Z,98593.58
2022-12-15T12:11:39.653Z,98593.58
2022-12-15T12:13:57.027Z,98602.17
2022-12-15T12:16:07.991Z,98606.65
2022-12-15T12:18:19.479Z,98601.27
2022-12-15T12:20:29.082Z,98598.69
2022-12-15T12:22:36.532Z,98602.65
2022-12-15T12:24:44.123Z,98609.16
2022-12-15T12:26:56.512Z,98603.18
2022-12-15T12:29:05.036Z,98602.83
2022-12-15T12:31:21.071Z,98594.48
2022-12-15T12:33:32.758Z,98591.92
2022-12-15T12:35:42.145Z,98591.59
2022-12-15T12:37:50.520Z,98589.98
2022-12-15T12:39:57.404Z,98589.01
2022-12-15T12:42:08.796Z,98592.60
2022-12-15T12:44:22.100Z,98593.52
2022-12-15T12:46:28.274Z,98594.73
2022-12-15T12:48:35.128Z,98596.64
2022-12-15T12:50:37.910Z,98599.30
2022-12-15T12:52:49.313Z,98607.39
2022-12-15T12:54:57.938Z,98618.07
2022-12-15T12:57:21.865Z,98623.56
2022-12-15T12:59:38.346Z,98618.39
2022-12-15T13:01:41.136Z,98621.77
2022-12-15T13:03:44.078Z,98626.73
2022-12-15T13:05:52.540Z,98632.92
2022-12-15T13:08:15.496Z,98636.86
2022-12-15T13:10:20.687Z,98629.09
2022-12-15T13:12:53.892Z,98626.52
2022-12-15T13:14:58.530Z,98632.39
2022-12-15T13:17:25.870Z,98639.91
2022-12-15T13:20:00.415Z,98635.73
2022-12-15T13:22:03.142Z,98630.71
2022-12-15T13:24:17.122Z,98620.28
2022-12-15T13:26:20.364Z,98610.64
2022-12-15T13:28:37.247Z,98600.33
2022-12-15T13:31:19.365Z,98591.17
2022-12-15T13:33:22.703Z,98592.45
2022-12-15T13:35:30.014Z,98589.29
2022-12-15T13:37:53.227Z,98595.98
2022-12-15T13:39:57.703Z,98602.63
2022-12-15T13:42:44.518Z,98617.16
2022-12-15T13:44:51.404Z,98630.95
2022-12-15T13:46:57.558Z,98623.56
2022-12-15T13:49:08.099Z,98625.82
2022-12-15T13:51:31.124Z,98632.17
2022-12-15T13:53:43.133Z,98638.08
2022-12-15T13:55:56.422Z,98639.67
2022-12-15T13:58:03.157Z,98646.11
2022-12-15T14:00:13.417Z,98646.08
2022-12-15T14:02:26.870Z,98642.45
2022-12-15T14:04:29.488Z,98637.52
2022-12-15T14:06:36.432Z,98632.66
2022-12-15T14:08:39.178Z,98635.02
2022-12-15T14:10:44.375Z,98633.55
2022-12-15T14:12:49.973Z,98634.85
2022-12-15T14:14:54.138Z,98634.30
2022-12-15T14:17:02.165Z,98631.41
2022-12-15T14:19:13.117Z,98634.48
2022-12-15T14:21:20.990Z,98631.41
2022-12-15T14:23:25.389Z,98625.52
2022-12-15T14:25:29.147Z,98618.79
2022-12-15T14:27:33.057Z,98616.14
2022-12-15T14:29:35.717Z,98616.80
2022-12-15T14:31:39.356Z,98618.08
2022-12-15T14:33:44.627Z,98613.60
2022-12-15T14:35:56.140Z,98620.62
2022-12-15T14:38:02.171Z,98619.89
2022-12-15T14:40:14.934Z,98613.84
2022-12-15T14:42:21.980Z,98612.34
2022-12-15T14:44:38.074Z,98611.91
2022-12-15T14:46:45.942Z,98611.79
2022-12-15T14:48:54.311Z,98609.58
2022-12-15T14:51:01.539Z,98603.33
2022-12-15T14:53:12.664Z,98601.04
2022-12-15T14:55:33.761Z,98600.82
2022-12-15T14:57:43.810Z,98599.44
2022-12-15T14:59:48.830Z,98602.33
2022-12-15T15:01:58.221Z,98596.39
2022-12-15T15:03:04.400Z,98620.77
2022-12-15T15:03:10.852Z,98615.40
2022-12-15T15:04:03.181Z,98588.44
2022-12-15T15:06:16.723Z,98578.12
2022-12-15T15:08:27.299Z,98569.14
2022-12-15T15:10:30.427Z,98561.77
2022-12-15T15:12:43.661Z,98549.11
2022-12-15T15:14:49.081Z,98544.73
2022-12-15T15:17:07.589Z,98542.25
2022-12-15T15:19:21.194Z,98550.73
2022-12-15T15:21:27.930Z,98566.52
2022-12-15T15:23:31.110Z,98578.38
2022-12-15T15:25:39.846Z,98583.89
2022-12-15T15:27:43.618Z,98594.75
2022-12-15T15:29:46.552Z,98608.83
2022-12-15T15:32:04.024Z,98623.72
2022-12-15T15:34:07.026Z,98637.63
2022-12-15T15:36:11.127Z,98643.48
2022-12-15T15:38:20.320Z,98642.44
2022-12-15T15:40:23.141Z,98645.75
2022-12-15T15:42:32.260Z,98640.17
2022-12-15T15:44:35.530Z,98625.66
2022-12-15T15:46:44.462Z,98624.42
2022-12-15T15:48:49.969Z,98632.74
2022-12-15T15:50:52.684Z,98637.10
2022-12-15T15:52:56.139Z,98631.91
2022-12-15T15:54:59.280Z,98626.40
2022-12-15T15:57:02.246Z,98623.77
2022-12-15T15:59:11.619Z,98627.85
2022-12-15T16:01:14.387Z,98629.92
2022-12-15T16:03:17.198Z,98622.16
2022-12-15T16:05:20.645Z,98614.27
2022-12-15T16:07:26.611Z,98616.41
2022-12-15T16:09:29.320Z,98620.41
2022-12-15T16:11:32.701Z,98620.93
2022-12-15T16:13:35.501Z,98619.19
2022-12-15T16:15:38.369Z,98618.31
2022-12-15T16:17:41.425Z,98615.34
2022-12-15T16:19:44.106Z,98614.05
2022-12-15T16:21:46.806Z,98615.55
2022-12-15T16:23:49.827Z,98619.85
2022-12-15T16:25:54.855Z,98617.14
2022-12-15T16:27:57.712Z,98612.98
2022-12-15T16:30:00.453Z,98612.32
2022-12-15T16:32:04.891Z,98615.09
2022-12-15T16:34:07.792Z,98615.45
2022-12-15T16:36:13.292Z,98615.08
2022-12-15T16:38:20.801Z,98608.48
2022-12-15T16:40:25.713Z,98602.77
2022-12-15T16:42:28.617Z,98601.82
2022-12-15T16:44:31.793Z,98601.21
2022-12-15T16:46:34.796Z,98601.21
2022-12-15T16:48:38.930Z,98599.46
2022-12-15T16:50:44.733Z,98595.91
2022-12-15T16:52:50.295Z,98589.21
2022-12-15T16:54:53.257Z,98582.89
2022-12-15T16:56:57.319Z,98576.73
2022-12-15T16:59:30.815Z,98577.00
2022-12-15T17:01:23.724Z,98573.17
2022-12-15T17:03:27.568Z,98566.73
2022-12-15T17:05:33.732Z,98565.35
2022-12-15T17:07:36.775Z,98569.52
2022-12-15T17:09:39.818Z,98560.38
2022-12-15T17:11:42.744Z,98567.23
2022-12-15T17:13:48.138Z,98570.45
2022-12-15T17:15:51.014Z,98580.04
2022-12-15T17:17:55.120Z,98588.56
2022-12-15T17:20:27.880Z,98593.11
2022-12-15T17:22:27.444Z,98592.94
2022-12-15T17:24:31.488Z,98596.07
2022-12-15T17:26:38.110Z,98603.04
2022-12-15T17:28:42.375Z,98602.88
2022-12-15T17:30:45.487Z,98598.70
2022-12-15T17:32:48.760Z,98604.60
2022-12-15T17:34:52.021Z,98611.27
2022-12-15T17:36:56.338Z,98614.05
2022-12-15T17:39:01.505Z,98601.38
2022-12-15T17:41:05.314Z,98598.47
2022-12-15T17:43:13.112Z,98594.38
2022-12-15T17:45:19.809Z,98590.68
2022-12-15T17:47:22.475Z,98592.86
2022-12-15T17:49:27.695Z,98593.74
2022-12-15T17:51:33.543Z,98595.99
2022-12-15T17:53:36.339Z,98599.20
2022-12-15T17:55:39.856Z,98591.88
2022-12-15T17:57:43.555Z,98588.98
2022-12-15T17:59:47.011Z,98587.96
2022-12-15T18:01:50.678Z,98585.73
2022-12-15T18:03:54.321Z,98589.86
2022-12-15T18:05:59.181Z,98592.79
2022-12-15T18:08:10.257Z,98593.30
2022-12-15T18:10:24.833Z,98597.21
2022-12-15T18:12:28.199Z,98596.42
2022-12-15T18:14:33.483Z,98591.06
2022-12-15T18:16:44.942Z,98578.77
2022-12-15T18:18:50.556Z,98577.68
2022-12-15T18:20:57.553Z,98581.45
2022-12-15T18:23:01.359Z,98582.18
2022-12-15T18:25:06.333Z,98578.67
2022-12-15T18:27:19.422Z,98570.70
2022-12-15T18:29:22.992Z,98577.46
2022-12-15T18:31:30.008Z,98571.61
2022-12-15T18:33:34.445Z,98564.54
2022-12-15T18:35:40.256Z,98566.46
2022-12-15T18:37:43.135Z,98561.92
2022-12-15T18:39:47.652Z,98572.48
2022-12-15T18:41:51.709Z,98576.38
2022-12-15T18:43:55.408Z,98579.80
2022-12-15T18:46:00.220Z,98578.27
2022-12-15T18:48:13.273Z,98573.57
2022-12-15T18:50:20.153Z,98582.29
2022-12-15T18:52:27.560Z,98578.86
2022-12-15T18:54:32.985Z,98568.33
2022-12-15T18:56:37.416Z,98567.06
2022-12-15T18:58:40.585Z,98568.44
2022-12-15T19:00:44.792Z,98566.30
2022-12-15T19:02:48.962Z,98565.02
2022-12-15T19:04:57.223Z,98558.86
2022-12-15T19:07:01.728Z,98552.74
2022-12-15T19:09:07.430Z,98547.86
2022-12-15T19:11:14.908Z,98534.89
2022-12-15T19:13:23.261Z,98537.45
2022-12-15T19:15:27.229Z,98542.34
2022-12-15T19:17:33.096Z,98540.54
2022-12-15T19:19:37.072Z,98530.65
2022-12-15T19:21:41.150Z,98526.58
2022-12-15T19:23:47.843Z,98519.19
2022-12-15T19:25:52.972Z,98509.45
2022-12-15T19:27:59.416Z,98505.77
2022-12-15T19:30:13.147Z,98505.08
2022-12-15T19:32:17.875Z,98505.40
2022-12-15T19:34:23.797Z,98507.52
2022-12-15T19:36:32.306Z,98505.85
2022-12-15T19:38:42.437Z,98497.58
2022-12-15T19:40:48.242Z,98495.16
2022-12-15T19:42:53.216Z,98499.15
2022-12-15T19:44:59.137Z,98510.27
2022-12-15T19:47:05.694Z,98511.42
2022-12-15T19:49:11.281Z,98511.08
2022-12-15T19:51:17.355Z,98508.33
2022-12-15T19:53:26.866Z,98504.82
2022-12-15T19:55:33.462Z,98509.80
2022-12-15T19:57:37.570Z,98512.71
2022-12-15T19:59:42.575Z,98504.55
2022-12-15T20:01:45.599Z,98502.79
2022-12-15T20:03:51.674Z,98505.08
2022-12-15T20:05:56.842Z,98508.18
2022-12-15T20:07:59.771Z,98502.33
2022-12-15T20:10:14.450Z,98491.86
2022-12-15T20:12:21.127Z,98489.41
2022-12-15T20:14:26.431Z,98488.80
2022-12-15T20:16:30.042Z,98477.33
2022-12-15T20:18:36.789Z,98471.77
2022-12-15T20:20:41.478Z,98467.16
2022-12-15T20:22:47.356Z,98462.42
2022-12-15T20:24:50.216Z,98453.25
2022-12-15T20:26:56.773Z,98434.17
2022-12-15T20:29:03.976Z,98425.46
2022-12-15T20:31:11.757Z,98418.64
2022-12-15T20:33:18.841Z,98424.84
2022-12-15T20:35:23.259Z,98427.34
2022-12-15T20:37:28.911Z,98430.08
2022-12-15T20:39:31.962Z,98434.97
2022-12-15T20:41:35.257Z,98429.69
2022-12-15T20:43:41.137Z,98420.48
2022-12-15T20:45:47.000Z,98411.20
2022-12-15T20:47:52.780Z,98408.20
2022-12-15T20:49:56.523Z,98407.27
2022-12-15T20:52:00.611Z,98405.59
2022-12-15T20:54:13.869Z,98404.31
2022-12-15T20:56:20.909Z,98399.48
2022-12-15T20:58:28.301Z,98395.98
2022-12-15T21:00:39.785Z,98396.14
2022-12-15T21:02:46.200Z,98394.78
2022-12-15T21:04:50.048Z,98389.95
2022-12-15T21:06:55.052Z,98381.20
2022-12-15T21:08:58.062Z,98385.92
2022-12-15T21:11:10.310Z,98384.18
2022-12-15T21:13:19.397Z,98384.64
2022-12-15T21:15:23.550Z,98379.25
2022-12-15T21:17:28.399Z,98375.33
2022-12-15T21:19:31.598Z,98374.63
2022-12-15T21:21:36.477Z,98374.60
2022-12-15T21:23:42.748Z,98376.39
2022-12-15T21:25:46.209Z,98376.56
2022-12-15T21:27:48.941Z,98381.55
2022-12-15T21:29:52.795Z,98383.44
2022-12-15T21:31:56.019Z,98392.41
2022-12-15T21:33:58.630Z,98381.75
2022-12-15T21:36:05.426Z,98374.62
2022-12-15T21:38:23.873Z,98364.60
2022-12-15T21:40:26.959Z,98350.77
2022-12-15T21:42:35.615Z,98346.73
2022-12-15T21:44:38.411Z,98346.39
2022-12-15T21:46:41.294Z,98349.83
2022-12-15T21:48:45.292Z,98352.94
2022-12-15T21:50:48.237Z,98352.29
2022-12-15T21:52:50.972Z,98349.94
2022-12-15T21:54:54.291Z,98346.62
2022-12-15T21:56:57.741Z,98336.45
2022-12-15T21:59:00.398Z,98334.33
2022-12-15T22:01:03.624Z,98330.50
2022-12-15T22:03:09.845Z,98332.99
2022-12-15T22:05:17.867Z,98338.36
2022-12-15T22:07:20.486Z,98337.92
2022-12-15T22:09:23.149Z,98336.02
2022-12-15T22:11:27.767Z,98341.53
2022-12-15T22:13:30.438Z,98341.79
2022-12-15T22:15:33.086Z,98344.46
2022-12-15T22:17:35.789Z,98339.27
2022-12-15T22:19:38.426Z,98345.67
2022-12-15T22:21:44.111Z,98347.33
2022-12-15T22:23:46.849Z,98339.31
2022-12-15T22:25:54.701Z,98339.05
2022-12-15T22:27:57.522Z,98331.66
2022-12-15T22:30:00.227Z,98312.77
2022-12-15T22:32:10.239Z,98306.76
2022-12-15T22:34:15.387Z,98317.08
2022-12-15T22:36:18.121Z,98317.56
2022-12-15T22:38:22.727Z,98319.02
2022-12-15T22:40:25.454Z,98319.44
2022-12-15T22:42:28.178Z,98318.79
2022-12-15T22:44:33.286Z,98313.73
2022-12-15T22:46:35.996Z,98315.30
2022-12-15T22:48:40.923Z,98318.99
2022-12-15T22:50:43.975Z,98318.48
2022-12-15T22:52:46.954Z,98315.45
2022-12-15T22:54:50.356Z,98323.89
2022-12-15T22:56:56.986Z,98318.59
2022-12-15T22:59:05.060Z,98313.23
2022-12-15T23:01:09.438Z,98312.20
2022-12-15T23:03:12.350Z,98304.86
2022-12-15T23:05:17.959Z,98299.87
2022-12-15T23:07:20.561Z,98298.08
2022-12-15T23:09:23.287Z,98296.62
2022-12-15T23:11:25.944Z,98292.30
2022-12-15T23:13:28.626Z,98293.21
2022-12-15T23:15:32.524Z,98291.00
2022-12-15T23:17:35.125Z,98278.25
2022-12-15T23:19:41.708Z,98277.53
2022-12-15T23:21:44.391Z,98269.36
2022-12-15T23:23:47.556Z,98267.20
2022-12-15T23:25:53.439Z,98261.65
2022-12-15T23:27:56.492Z,98258.23
2022-12-15T23:29:59.150Z,98254.11
2022-12-15T23:32:01.755Z,98252.10
2022-12-15T23:34:04.380Z,98259.40
2022-12-15T23:36:09.168Z,98256.10
2022-12-15T23:38:12.099Z,98255.19
2022-12-15T23:40:14.955Z,98244.44
2022-12-15T23:42:17.689Z,98236.11
2022-12-15T23:44:20.270Z,98238.73
2022-12-15T23:46:22.923Z,98243.23
2022-12-15T23:48:29.875Z,98244.20
2022-12-15T23:50:32.622Z,98245.61
2022-12-15T23:52:35.507Z,98235.48
2022-12-15T23:54:38.255Z,98227.58
2022-12-15T23:56:40.917Z,98217.73
2022-12-15T23:58:45.053Z,98208.89
